Ana Sayfa
METAR-TAF:

METAR-TAF

Havaalanları :

Doylestown Airport

Doylestown, Pensilvanya, Amerika Birleşik Devletleri

Enlem: 40-19-48N, Boylam: 075-07-21W, yükseklik: 120 m

Güncel hava durumu gözlemi

Rapor saat 19:30 UTC de 15 dakika önce yapıldı.
Rüzgar değişken yönden 3 kt
Sıcaklık 28°C
Nem 62%
Basınç 1012 hPa
Görüş mesafesi: 16.1 km
2900 ft yükseklikte az bulutlu
5000 ft yükseklikte parçalı çok bulutlu
civarda gök gürültülü fırtına

METAR: KDYL 051930Z AUTO VRB03KT 10SM VCTS FEW029 BKN050 28/20 A2987 RMK AO2 LTG DSNT E AND SW T02780200

Saat: 15:45 (19:45 UTC)


TAF: eksik

4.000'den fazla havaalanı için hava durumu gözlemleri ve tahminleri (METAR ve TAF raporları).

Kullanılabilir istasyonlar harita üzerinde sarı ve kırmızı noktalarla gösterilir.

İstasyonun adını görmek için fareyi noktanın üzerinde gezdirin.

Sonrasında hava gözlem ve tahminlerini görmek için tıklayın.

Haritayı değiştirmek için: yaklaştırmak için siyah artı işaretli yeşil düğmeye ve uzaklaştırmak için de eksi işaretli düğmeye hızla tıklayın; bitişik haritalar için yeşil okları kullanın.


METAR-TAF: